Terminal Aerodrome Forecast
Issued by NWS

Home | Current Version | Previous Version | Text Only | Print | Product List | Glossary On
Versions: 1 2 3 4 5 6 7 8 9 10 11 12 13 14 15 16
000
FTUS45 KTFX 270532
TAFGTF
TAF
KGTF 270532Z 2706/2806 14008KT P6SM SCT200
     FM271200 22012KT P6SM BKN180
     FM271700 23018G28KT P6SM SCT100 BKN180
     FM280200 23009KT P6SM BKN200=

USA.gov is the U.S. government's official web portal to all federal, state and local government web resources and services.